Time;durP1;ratioP1;P1;durP2;ratioP2;P2;SDS_P1;SDS_P2;PMS_P1;PMS_P2;Temp;Humidity;BMP_temperature;BMP_pressure;BME280_temperature;BME280_humidity;BME280_pressure;Samples;Min_cycle;Max_cycle;Signal;HPM_P1;HPM_P2
2024/04/08 00:01:17;;;;;;;;;;;;;;;;;;5083062;28;20391;-67
2024/04/08 00:03:42;;;;;;;;;;;;;;;;;;5074999;28;20329;-67
2024/04/08 00:06:07;;;;;;;;;;;;;;;;;;5074789;28;20386;-67
2024/04/08 00:08:32;;;;;;;;;;;;;;;;;;5074857;28;20323;-67
2024/04/08 00:10:57;;;;;;;;;;;;;;;;;;5074863;28;20363;-67
2024/04/08 00:13:22;;;;;;;;;;;;;;;;;;5081551;28;19935;-67
2024/04/08 00:15:48;;;;;;;;;;;;;;;;;;5093896;28;19918;-67
2024/04/08 00:18:13;;;;;;;;;;;;;;;;;;5093688;28;20296;-67
2024/04/08 00:20:38;;;;;;;;;;;;;;;;;;5093610;28;20007;-67
2024/04/08 00:23:03;;;;;;;;;;;;;;;;;;5092251;28;19908;-67
2024/04/08 00:25:29;;;;;;;;;;;;;;;;;;5076382;28;20304;-67
2024/04/08 00:27:54;;;;;;;;;;;;;;;;;;5078274;28;19944;-67
2024/04/08 00:30:20;;;;;;;;;;;;;;;;;;5074546;28;19920;-67
2024/04/08 00:32:45;;;;;;;;;;;;;;;;;;5074267;28;20368;-68
2024/04/08 00:35:10;;;;;;;;;;;;;;;;;;5086558;28;20272;-67
2024/04/08 00:37:35;;;;;;;;;;;;;;;;;;5093388;28;19916;-67
2024/04/08 00:40:00;;;;;;;;;;;;;;;;;;5091995;28;19920;-67
2024/04/08 00:42:26;;;;;;;;;;;;;;;;;;5092489;28;19916;-67
2024/04/08 00:44:51;;;;;;;;;;;;;;;;;;5091696;28;19952;-67
2024/04/08 00:47:16;;;;;;;;;;;;;;;;;;5075067;28;20258;-67
2024/04/08 00:49:41;;;;;;;;;;;;;;;;;;5073947;28;19987;-67
2024/04/08 00:52:06;;;;;;;;;;;;;;;;;;5077996;28;19970;-67
2024/04/08 00:54:31;;;;;;;;;;;;;;;;;;5073903;28;19915;-67
2024/04/08 00:56:57;;;;;;;;;;;;;;;;;;5087164;28;19918;-67
2024/04/08 00:59:22;;;;;;;;;;;;;;;;;;5091937;28;20006;-67
2024/04/08 01:01:47;;;;;;;;;;;;;;;;;;5078711;28;19908;-67
2024/04/08 01:04:12;;;;;;;;;;;;;;;;;;5073843;28;19913;-67
2024/04/08 01:06:38;;;;;;;;;;;;;;;;;;5074898;28;20427;-67
2024/04/08 01:09:03;;;;;;;;;;;;;;;;;;5085116;28;19916;-67
2024/04/08 01:11:29;;;;;;;;;;;;;;;;;;5092144;28;19908;-67
2024/04/08 01:13:54;;;;;;;;;;;;;;;;;;5092116;28;19934;-67
2024/04/08 01:16:19;;;;;;;;;;;;;;;;;;5092124;28;19908;-67
2024/04/08 01:18:44;;;;;;;;;;;;;;;;;;5090998;28;19915;-67
2024/04/08 01:21:09;;;;;;;;;;;;;;;;;;5073274;28;19920;-67
2024/04/08 01:23:34;;;;;;;;;;;;;;;;;;5073241;28;19961;-67
2024/04/08 01:25:59;;;;;;;;;;;;;;;;;;5088962;28;19974;-67
2024/04/08 01:28:24;;;;;;;;;;;;;;;;;;5092214;28;19915;-64
2024/04/08 01:30:50;;;;;;;;;;;;;;;;;;5092196;28;19908;-64
2024/04/08 01:33:15;;;;;;;;;;;;;;;;;;5091754;28;20449;-64
2024/04/08 01:35:40;;;;;;;;;;;;;;;;;;5091928;28;19919;-64
2024/04/08 01:38:05;;;;;;;;;;;;;;;;;;5091973;28;20011;-64
2024/04/08 01:40:31;;;;;;;;;;;;;;;;;;5091715;28;19984;-64
2024/04/08 01:42:56;;;;;;;;;;;;;;;;;;5091575;28;19916;-65
2024/04/08 01:45:21;;;;;;;;;;;;;;;;;;5072799;28;19954;-65
2024/04/08 01:47:46;;;;;;;;;;;;;;;;;;5072692;28;19915;-65
2024/04/08 01:50:11;;;;;;;;;;;;;;;;;;5072807;28;19918;-64
2024/04/08 01:52:36;;;;;;;;;;;;;;;;;;5079114;28;20002;-65
2024/04/08 01:55:03;;;;;;;;;;;;;;;;;;5073241;28;20372;-64
2024/04/08 01:57:28;;;;;;;;;;;;;;;;;;5085146;28;20343;-63
2024/04/08 01:59:53;;;;;;;;;;;;;;;;;;5091532;28;20628;-64
2024/04/08 02:02:18;;;;;;;;;;;;;;;;;;5087428;28;20269;-64
2024/04/08 02:04:43;;;;;;;;;;;;;;;;;;5091453;28;19935;-65
2024/04/08 02:07:08;;;;;;;;;;;;;;;;;;5091885;28;19941;-65
2024/04/08 02:09:33;;;;;;;;;;;;;;;;;;5090725;28;20015;-65
2024/04/08 02:11:59;;;;;;;;;;;;;;;;;;5091091;28;19941;-64
2024/04/08 02:14:24;;;;;;;;;;;;;;;;;;5087458;28;19930;-64
2024/04/08 02:16:49;;;;;;;;;;;;;;;;;;5083985;28;20344;-65
2024/04/08 02:19:14;;;;;;;;;;;;;;;;;;5091353;28;20288;-65
2024/04/08 02:21:39;;;;;;;;;;;;;;;;;;5091268;28;20279;-65
2024/04/08 02:24:04;;;;;;;;;;;;;;;;;;5091539;28;19912;-65
2024/04/08 02:26:29;;;;;;;;;;;;;;;;;;5090912;28;19933;-65
2024/04/08 02:28:55;;;;;;;;;;;;;;;;;;5091113;28;19908;-64
2024/04/08 02:31:20;;;;;;;;;;;;;;;;;;5091159;28;19915;-64
2024/04/08 02:33:45;;;;;;;;;;;;;;;;;;5090743;28;19912;-64
2024/04/08 02:36:10;;;;;;;;;;;;;;;;;;5090699;28;19951;-64
2024/04/08 02:38:35;;;;;;;;;;;;;;;;;;5091250;28;19918;-64
2024/04/08 02:41:00;;;;;;;;;;;;;;;;;;5090494;28;19974;-64
2024/04/08 02:43:25;;;;;;;;;;;;;;;;;;5086726;28;19948;-64
2024/04/08 02:45:50;;;;;;;;;;;;;;;;;;5091072;28;19912;-64
2024/04/08 02:48:18;;;;;;;;;;;;;;;;;;5090673;28;20314;-64
2024/04/08 02:50:43;;;;;;;;;;;;;;;;;;5081865;28;19908;-64
2024/04/08 02:53:10;;;;;;;;;;;;;;;;;;5080803;28;20630;-64
2024/04/08 02:55:35;;;;;;;;;;;;;;;;;;5071969;28;20372;-64
2024/04/08 02:58:00;;;;;;;;;;;;;;;;;;5071892;28;20001;-64
2024/04/08 03:00:25;;;;;;;;;;;;;;;;;;5075716;28;20364;-64
2024/04/08 03:02:50;;;;;;;;;;;;;;;;;;5087846;28;19919;-64
2024/04/08 03:05:15;;;;;;;;;;;;;;;;;;5089250;28;20287;-64
2024/04/08 03:07:41;;;;;;;;;;;;;;;;;;5089210;28;19994;-65
2024/04/08 03:10:06;;;;;;;;;;;;;;;;;;5090799;28;19914;-66
2024/04/08 03:12:31;;;;;;;;;;;;;;;;;;5088438;28;19919;-64
2024/04/08 03:14:57;;;;;;;;;;;;;;;;;;5087480;28;19915;-64
2024/04/08 03:17:22;;;;;;;;;;;;;;;;;;5089612;28;20025;-64
2024/04/08 03:19:47;;;;;;;;;;;;;;;;;;5090464;28;19999;-64
2024/04/08 03:22:12;;;;;;;;;;;;;;;;;;5090315;28;20289;-64
2024/04/08 03:24:38;;;;;;;;;;;;;;;;;;5090798;28;19947;-64
2024/04/08 03:27:03;;;;;;;;;;;;;;;;;;5090574;28;19924;-64
2024/04/08 03:29:28;;;;;;;;;;;;;;;;;;5087379;28;20269;-64
2024/04/08 03:31:53;;;;;;;;;;;;;;;;;;5090426;28;20350;-64
2024/04/08 03:34:18;;;;;;;;;;;;;;;;;;5090572;28;19939;-64
2024/04/08 03:36:44;;;;;;;;;;;;;;;;;;5090324;28;20379;-64
2024/04/08 03:39:09;;;;;;;;;;;;;;;;;;5090482;28;19913;-64
2024/04/08 03:41:34;;;;;;;;;;;;;;;;;;5086830;28;19924;-65
2024/04/08 03:43:59;;;;;;;;;;;;;;;;;;5074069;28;19919;-65
2024/04/08 03:46:24;;;;;;;;;;;;;;;;;;5089888;28;19915;-65
2024/04/08 03:48:49;;;;;;;;;;;;;;;;;;5077206;28;19915;-64
2024/04/08 03:51:16;;;;;;;;;;;;;;;;;;5074903;28;19915;-65
2024/04/08 03:53:41;;;;;;;;;;;;;;;;;;5085353;28;19923;-65
2024/04/08 03:56:06;;;;;;;;;;;;;;;;;;5090092;28;19912;-64
2024/04/08 03:58:31;;;;;;;;;;;;;;;;;;5089946;28;19908;-65
2024/04/08 04:00:56;;;;;;;;;;;;;;;;;;5089821;28;19952;-65
2024/04/08 04:03:22;;;;;;;;;;;;;;;;;;5090031;28;19909;-64
2024/04/08 04:05:47;;;;;;;;;;;;;;;;;;5089675;28;19912;-65
2024/04/08 04:08:12;;;;;;;;;;;;;;;;;;5089596;28;19961;-65
2024/04/08 04:10:37;;;;;;;;;;;;;;;;;;5089285;28;19912;-64
2024/04/08 04:13:02;;;;;;;;;;;;;;;;;;5086916;28;20003;-64
2024/04/08 04:15:27;;;;;;;;;;;;;;;;;;5090565;28;19916;-65
2024/04/08 04:17:53;;;;;;;;;;;;;;;;;;5093739;28;19908;-65
2024/04/08 04:20:18;;;;;;;;;;;;;;;;;;5093334;28;19908;-65
2024/04/08 04:22:44;;;;;;;;;;;;;;;;;;5093131;28;19908;-65
2024/04/08 04:25:09;;;;;;;;;;;;;;;;;;5093315;28;19914;-65
2024/04/08 04:27:34;;;;;;;;;;;;;;;;;;5093612;28;20280;-65
2024/04/08 04:29:59;;;;;;;;;;;;;;;;;;5093422;28;19995;-65
2024/04/08 04:32:25;;;;;;;;;;;;;;;;;;5092956;28;19916;-65
2024/04/08 04:34:50;;;;;;;;;;;;;;;;;;5093252;28;19912;-65
2024/04/08 04:37:15;;;;;;;;;;;;;;;;;;5092954;28;19908;-65
2024/04/08 04:39:40;;;;;;;;;;;;;;;;;;5092698;28;19912;-65
2024/04/08 04:42:05;;;;;;;;;;;;;;;;;;5092854;28;20052;-65
2024/04/08 04:44:30;;;;;;;;;;;;;;;;;;5089920;28;19961;-65
2024/04/08 04:46:55;;;;;;;;;;;;;;;;;;5079618;28;19972;-65
2024/04/08 04:49:20;;;;;;;;;;;;;;;;;;5091746;28;19918;-66
2024/04/08 04:51:46;;;;;;;;;;;;;;;;;;5088815;28;19934;-67
2024/04/08 04:54:11;;;;;;;;;;;;;;;;;;5092704;28;19908;-65
2024/04/08 04:56:36;;;;;;;;;;;;;;;;;;5092941;28;20363;-65
2024/04/08 04:59:01;;;;;;;;;;;;;;;;;;5090062;28;19996;-61
2024/04/08 05:01:26;;;;;;;;;;;;;;;;;;5086527;28;19912;-61
2024/04/08 05:03:51;;;;;;;;;;;;;;;;;;5081905;28;19909;-62
2024/04/08 05:06:16;;;;;;;;;;;;;;;;;;5084458;28;19994;-61
2024/04/08 05:08:42;;;;;;;;;;;;;;;;;;5078806;28;19909;-62
2024/04/08 05:11:07;;;;;;;;;;;;;;;;;;5079336;28;20022;-62
2024/04/08 05:13:32;;;;;;;;;;;;;;;;;;5087609;28;20411;-61
2024/04/08 05:15:57;;;;;;;;;;;;;;;;;;5073658;28;20412;-61
2024/04/08 05:18:22;;;;;;;;;;;;;;;;;;5073552;28;19916;-62
2024/04/08 05:20:47;;;;;;;;;;;;;;;;;;5076408;28;19913;-60
2024/04/08 05:23:14;;;;;;;;;;;;;;;;;;5079743;28;19955;-60
2024/04/08 05:25:39;;;;;;;;;;;;;;;;;;5088491;28;19917;-61
2024/04/08 05:28:04;;;;;;;;;;;;;;;;;;5089135;28;19909;-62
2024/04/08 05:30:29;;;;;;;;;;;;;;;;;;5089079;28;19959;-61
2024/04/08 05:32:55;;;;;;;;;;;;;;;;;;5089010;28;19939;-61
2024/04/08 05:35:20;;;;;;;;;;;;;;;;;;5089154;28;19920;-61
2024/04/08 05:37:45;;;;;;;;;;;;;;;;;;5087194;28;19915;-62
2024/04/08 05:40:13;;;;;;;;;;;;;;;;;;5088385;28;20009;-61
2024/04/08 05:42:38;;;;;;;;;;;;;;;;;;5085342;28;19935;-62
2024/04/08 05:45:05;;;;;;;;;;;;;;;;;;5080612;28;20304;-61
2024/04/08 05:47:30;;;;;;;;;;;;;;;;;;5086175;28;19908;-60
2024/04/08 05:49:56;;;;;;;;;;;;;;;;;;5079667;28;19909;-61
2024/04/08 05:52:21;;;;;;;;;;;;;;;;;;5080789;28;20011;-61
2024/04/08 05:54:46;;;;;;;;;;;;;;;;;;5077574;28;19908;-61
2024/04/08 05:57:11;;;;;;;;;;;;;;;;;;5074794;28;19915;-61
2024/04/08 05:59:36;;;;;;;;;;;;;;;;;;5083219;28;19917;-61
2024/04/08 06:02:02;;;;;;;;;;;;;;;;;;5081309;28;19915;-61
2024/04/08 06:04:27;;;;;;;;;;;;;;;;;;5079173;28;19920;-62
2024/04/08 06:06:52;;;;;;;;;;;;;;;;;;5080711;28;19962;-60
2024/04/08 06:09:18;;;;;;;;;;;;;;;;;;5081033;28;19989;-62
2024/04/08 06:11:43;;;;;;;;;;;;;;;;;;5082995;28;19969;-61
2024/04/08 06:14:09;;;;;;;;;;;;;;;;;;5083823;28;19957;-61
2024/04/08 06:16:34;;;;;;;;;;;;;;;;;;5088223;28;19913;-61
2024/04/08 06:18:59;;;;;;;;;;;;;;;;;;5077436;28;19908;-62
2024/04/08 06:21:24;;;;;;;;;;;;;;;;;;5082072;28;20327;-60
2024/04/08 06:23:49;;;;;;;;;;;;;;;;;;5072268;28;19912;-60
2024/04/08 06:26:15;;;;;;;;;;;;;;;;;;5072045;28;19917;-61
2024/04/08 06:28:40;;;;;;;;;;;;;;;;;;5071878;28;19908;-62
2024/04/08 06:31:05;;;;;;;;;;;;;;;;;;5075778;28;19908;-61
2024/04/08 06:33:32;;;;;;;;;;;;;;;;;;5072509;28;19913;-61
2024/04/08 06:35:57;;;;;;;;;;;;;;;;;;5072135;28;20408;-61
2024/04/08 06:38:22;;;;;;;;;;;;;;;;;;5071216;28;19913;-61
2024/04/08 06:40:47;;;;;;;;;;;;;;;;;;5071731;28;20392;-60
2024/04/08 06:43:12;;;;;;;;;;;;;;;;;;5077561;28;20368;-61
2024/04/08 06:45:37;;;;;;;;;;;;;;;;;;5090899;28;20359;-62
2024/04/08 06:48:03;;;;;;;;;;;;;;;;;;5087507;28;20261;-60
2024/04/08 06:50:28;;;;;;;;;;;;;;;;;;5074702;28;19908;-61
2024/04/08 06:52:53;;;;;;;;;;;;;;;;;;5081917;28;19935;-65
2024/04/08 06:55:18;;;;;;;;;;;;;;;;;;5090893;28;20345;-65
2024/04/08 06:57:43;;;;;;;;;;;;;;;;;;5090608;28;19961;-65
2024/04/08 07:00:09;;;;;;;;;;;;;;;;;;5088490;28;19991;-65
2024/04/08 07:02:34;;;;;;;;;;;;;;;;;;5078936;28;19915;-65
2024/04/08 07:05:00;;;;;;;;;;;;;;;;;;5075611;28;20003;-65
2024/04/08 07:07:25;;;;;;;;;;;;;;;;;;5077872;28;19908;-65
2024/04/08 07:09:50;;;;;;;;;;;;;;;;;;5071407;28;19912;-65
2024/04/08 07:12:15;;;;;;;;;;;;;;;;;;5081268;28;19916;-66
2024/04/08 07:14:40;;;;;;;;;;;;;;;;;;5088725;28;19908;-66
2024/04/08 07:17:05;;;;;;;;;;;;;;;;;;5084017;28;19952;-65
2024/04/08 07:19:30;;;;;;;;;;;;;;;;;;5071435;28;19913;-60
2024/04/08 07:21:55;;;;;;;;;;;;;;;;;;5060825;28;19918;-61
2024/04/08 07:24:21;;;;;;;;;;;;;;;;;;5090518;28;19919;-62
2024/04/08 07:26:46;;;;;;;;;;;;;;;;;;5090164;28;20448;-61
2024/04/08 07:29:11;;;;;;;;;;;;;;;;;;5090221;28;20261;-62
2024/04/08 07:31:36;;;;;;;;;;;;;;;;;;5090269;28;19912;-63
2024/04/08 07:34:02;;;;;;;;;;;;;;;;;;5090382;28;19939;-61
2024/04/08 07:36:27;;;;;;;;;;;;;;;;;;5088514;28;19908;-61
2024/04/08 07:38:52;;;;;;;;;;;;;;;;;;5073575;28;19913;-62
2024/04/08 07:41:17;;;;;;;;;;;;;;;;;;5071049;28;20351;-62
2024/04/08 07:43:43;;;;;;;;;;;;;;;;;;5080853;28;19913;-61
2024/04/08 07:46:08;;;;;;;;;;;;;;;;;;5090046;28;19912;-62
2024/04/08 07:48:33;;;;;;;;;;;;;;;;;;5088953;28;20299;-63
2024/04/08 07:50:58;;;;;;;;;;;;;;;;;;5075553;28;19947;-62
2024/04/08 07:53:23;;;;;;;;;;;;;;;;;;5088431;28;19965;-62
2024/04/08 07:55:49;;;;;;;;;;;;;;;;;;5094026;28;19957;-62
2024/04/08 07:58:14;;;;;;;;;;;;;;;;;;5080168;28;19967;-61
2024/04/08 08:00:39;;;;;;;;;;;;;;;;;;5074978;28;19916;-62
2024/04/08 08:03:04;;;;;;;;;;;;;;;;;;5074878;28;20502;-62
2024/04/08 08:05:29;;;;;;;;;;;;;;;;;;5074707;28;20486;-62
2024/04/08 08:07:54;;;;;;;;;;;;;;;;;;5074924;28;20587;-62
2024/04/08 08:10:19;;;;;;;;;;;;;;;;;;5074476;28;20277;-61
2024/04/08 08:12:44;;;;;;;;;;;;;;;;;;5079081;28;20262;-62
2024/04/08 08:15:10;;;;;;;;;;;;;;;;;;5093702;28;19935;-62
2024/04/08 08:17:35;;;;;;;;;;;;;;;;;;5093771;28;20335;-62
2024/04/08 08:20:00;;;;;;;;;;;;;;;;;;5093072;28;19908;-62
2024/04/08 08:22:26;;;;;;;;;;;;;;;;;;5092638;28;19912;-62
2024/04/08 08:24:51;;;;;;;;;;;;;;;;;;5077534;28;19908;-62
2024/04/08 08:27:16;;;;;;;;;;;;;;;;;;5074451;28;19916;-61
2024/04/08 08:29:41;;;;;;;;;;;;;;;;;;5074966;28;19995;-61
2024/04/08 08:32:06;;;;;;;;;;;;;;;;;;5093383;28;19912;-62
2024/04/08 08:34:31;;;;;;;;;;;;;;;;;;5093484;28;20296;-62
2024/04/08 08:36:57;;;;;;;;;;;;;;;;;;5091511;28;19908;-61
2024/04/08 08:39:22;;;;;;;;;;;;;;;;;;5074415;28;20311;-61
2024/04/08 08:41:47;;;;;;;;;;;;;;;;;;5073706;28;19971;-61
2024/04/08 08:44:12;;;;;;;;;;;;;;;;;;5087919;28;19919;-61
2024/04/08 08:46:37;;;;;;;;;;;;;;;;;;5092860;28;19916;-62
2024/04/08 08:49:03;;;;;;;;;;;;;;;;;;5088233;28;19920;-62
2024/04/08 08:51:28;;;;;;;;;;;;;;;;;;5074550;28;19913;-62
2024/04/08 08:53:53;;;;;;;;;;;;;;;;;;5073891;28;20308;-62
2024/04/08 08:56:18;;;;;;;;;;;;;;;;;;5084658;28;19974;-61
2024/04/08 08:58:47;;;;;;;;;;;;;;;;;;5085426;28;20315;-62
2024/04/08 09:01:12;;;;;;;;;;;;;;;;;;5072915;28;20366;-61
2024/04/08 09:03:37;;;;;;;;;;;;;;;;;;5074345;28;20380;-63
2024/04/08 09:06:02;;;;;;;;;;;;;;;;;;5084252;28;19912;-62
2024/04/08 09:08:28;;;;;;;;;;;;;;;;;;5092839;28;20003;-62
2024/04/08 09:10:53;;;;;;;;;;;;;;;;;;5092518;28;20276;-63
2024/04/08 09:13:18;;;;;;;;;;;;;;;;;;5092414;28;19912;-62
2024/04/08 09:15:43;;;;;;;;;;;;;;;;;;5089514;28;19947;-62
2024/04/08 09:18:09;;;;;;;;;;;;;;;;;;5090078;28;19955;-62
2024/04/08 09:20:34;;;;;;;;;;;;;;;;;;5092572;28;20284;-62
2024/04/08 09:22:59;;;;;;;;;;;;;;;;;;5078210;28;19912;-61
2024/04/08 09:25:24;;;;;;;;;;;;;;;;;;5081546;28;20369;-61
2024/04/08 09:27:49;;;;;;;;;;;;;;;;;;5073179;28;20321;-62
2024/04/08 09:30:15;;;;;;;;;;;;;;;;;;5083775;28;20292;-62
2024/04/08 09:32:40;;;;;;;;;;;;;;;;;;5092129;28;19912;-62
2024/04/08 09:35:06;;;;;;;;;;;;;;;;;;5090117;28;19908;-62
2024/04/08 09:37:31;;;;;;;;;;;;;;;;;;5091769;28;19908;-62
2024/04/08 09:39:57;;;;;;;;;;;;;;;;;;5092311;28;19912;-66
2024/04/08 09:42:22;;;;;;;;;;;;;;;;;;5087717;28;19968;-66
2024/04/08 09:44:47;;;;;;;;;;;;;;;;;;5092029;28;19916;-65
2024/04/08 09:47:12;;;;;;;;;;;;;;;;;;5090371;28;19912;-66
2024/04/08 09:49:37;;;;;;;;;;;;;;;;;;5072867;28;20356;-66
2024/04/08 09:52:02;;;;;;;;;;;;;;;;;;5072547;28;20262;-65
2024/04/08 09:54:27;;;;;;;;;;;;;;;;;;5072833;28;20416;-66
2024/04/08 09:56:53;;;;;;;;;;;;;;;;;;5090681;28;19908;-66
2024/04/08 09:59:19;;;;;;;;;;;;;;;;;;5073508;28;19922;-66
2024/04/08 10:01:44;;;;;;;;;;;;;;;;;;5091471;28;19965;-65
2024/04/08 10:04:09;;;;;;;;;;;;;;;;;;5091313;28;19916;-65
2024/04/08 10:06:34;;;;;;;;;;;;;;;;;;5091377;28;19999;-65
2024/04/08 10:08:59;;;;;;;;;;;;;;;;;;5091152;28;19909;-65
2024/04/08 10:11:24;;;;;;;;;;;;;;;;;;5091106;28;19909;-65
2024/04/08 10:13:50;;;;;;;;;;;;;;;;;;5090956;28;19913;-65
2024/04/08 10:16:15;;;;;;;;;;;;;;;;;;5080914;28;19917;-65
2024/04/08 10:18:40;;;;;;;;;;;;;;;;;;5091356;28;20019;-65
2024/04/08 10:21:05;;;;;;;;;;;;;;;;;;5091490;28;20422;-66
2024/04/08 10:23:30;;;;;;;;;;;;;;;;;;5091223;28;20375;-65
2024/04/08 10:25:55;;;;;;;;;;;;;;;;;;5090962;28;20280;-65
2024/04/08 10:28:23;;;;;;;;;;;;;;;;;;5090569;28;20006;-65
2024/04/08 10:30:48;;;;;;;;;;;;;;;;;;5091427;28;19912;-66
2024/04/08 10:33:13;;;;;;;;;;;;;;;;;;5068137;28;19916;-66
2024/04/08 10:35:38;;;;;;;;;;;;;;;;;;5071960;28;20019;-65
2024/04/08 10:38:04;;;;;;;;;;;;;;;;;;5071791;28;19920;-65
2024/04/08 10:40:29;;;;;;;;;;;;;;;;;;5071705;28;20327;-65
2024/04/08 10:42:56;;;;;;;;;;;;;;;;;;5072200;28;19908;-65
2024/04/08 10:45:21;;;;;;;;;;;;;;;;;;5091128;28;20331;-65
2024/04/08 10:47:46;;;;;;;;;;;;;;;;;;5081291;28;19988;-65
2024/04/08 10:50:11;;;;;;;;;;;;;;;;;;5080814;28;19931;-65
2024/04/08 10:52:36;;;;;;;;;;;;;;;;;;5080126;28;19916;-65
2024/04/08 10:55:01;;;;;;;;;;;;;;;;;;5090886;28;19912;-65
2024/04/08 10:57:27;;;;;;;;;;;;;;;;;;5090425;28;20006;-65
2024/04/08 10:59:52;;;;;;;;;;;;;;;;;;5090570;28;19915;-65
2024/04/08 11:02:17;;;;;;;;;;;;;;;;;;5090418;28;20026;-65
2024/04/08 11:04:42;;;;;;;;;;;;;;;;;;5090584;28;19977;-65
2024/04/08 11:07:07;;;;;;;;;;;;;;;;;;5088396;28;20387;-65
2024/04/08 11:09:32;;;;;;;;;;;;;;;;;;5090701;28;20283;-65
2024/04/08 11:11:57;;;;;;;;;;;;;;;;;;5090167;28;19972;-65
2024/04/08 11:14:22;;;;;;;;;;;;;;;;;;5076357;28;19915;-65
2024/04/08 11:16:48;;;;;;;;;;;;;;;;;;5071405;28;19919;-65
2024/04/08 11:19:13;;;;;;;;;;;;;;;;;;5071594;28;19967;-65
2024/04/08 11:21:38;;;;;;;;;;;;;;;;;;5087711;28;19929;-66
2024/04/08 11:24:03;;;;;;;;;;;;;;;;;;5082716;28;20284;-65
2024/04/08 11:26:30;;;;;;;;;;;;;;;;;;5075598;28;19944;-65
2024/04/08 11:28:55;;;;;;;;;;;;;;;;;;5075282;28;19948;-65
2024/04/08 11:31:21;;;;;;;;;;;;;;;;;;5079084;28;19947;-65
2024/04/08 11:33:46;;;;;;;;;;;;;;;;;;5077217;28;19913;-65
2024/04/08 11:36:11;;;;;;;;;;;;;;;;;;5075346;28;19930;-65
2024/04/08 11:38:36;;;;;;;;;;;;;;;;;;5091378;28;19916;-65
2024/04/08 11:41:01;;;;;;;;;;;;;;;;;;5093937;28;20376;-65
2024/04/08 11:43:27;;;;;;;;;;;;;;;;;;5090797;28;19908;-66
2024/04/08 11:45:52;;;;;;;;;;;;;;;;;;5094317;28;19908;-65
2024/04/08 11:48:18;;;;;;;;;;;;;;;;;;5080800;28;20399;-65
2024/04/08 11:50:43;;;;;;;;;;;;;;;;;;5079153;28;20336;-65
2024/04/08 11:53:09;;;;;;;;;;;;;;;;;;5075163;28;20377;-65
2024/04/08 11:55:34;;;;;;;;;;;;;;;;;;5090738;28;20466;-65
2024/04/08 11:57:59;;;;;;;;;;;;;;;;;;5093956;28;19947;-65
2024/04/08 12:00:25;;;;;;;;;;;;;;;;;;5093710;28;19919;-61
2024/04/08 12:02:51;;;;;;;;;;;;;;;;;;5094150;28;20015;-61
2024/04/08 12:05:19;;;;;;;;;;;;;;;;;;5093133;28;20086;-61
2024/04/08 12:07:44;;;;;;;;;;;;;;;;;;5080407;28;19940;-61
2024/04/08 12:10:10;;;;;;;;;;;;;;;;;;5077784;28;19992;-61
2024/04/08 12:12:35;;;;;;;;;;;;;;;;;;5088433;28;20313;-62
2024/04/08 12:15:03;;;;;;;;;;;;;;;;;;5092765;28;20445;-62
2024/04/08 12:17:28;;;;;;;;;;;;;;;;;;5093586;28;19908;-62
2024/04/08 12:19:55;;;;;;;;;;;;;;;;;;5092770;28;19908;-60
2024/04/08 12:22:20;;;;;;;;;;;;;;;;;;5093613;28;19931;-61
2024/04/08 12:24:45;;;;;;;;;;;;;;;;;;5093594;28;20279;-61
2024/04/08 12:27:10;;;;;;;;;;;;;;;;;;5093465;28;19952;-61
2024/04/08 12:29:35;;;;;;;;;;;;;;;;;;5078397;28;20338;-62
2024/04/08 12:32:01;;;;;;;;;;;;;;;;;;5087915;28;20006;-61
2024/04/08 12:34:26;;;;;;;;;;;;;;;;;;5093341;28;19915;-61
2024/04/08 12:36:51;;;;;;;;;;;;;;;;;;5093302;28;19923;-61
2024/04/08 12:39:16;;;;;;;;;;;;;;;;;;5093559;28;20341;-62
2024/04/08 12:41:41;;;;;;;;;;;;;;;;;;5088683;28;20406;-61
2024/04/08 12:44:09;;;;;;;;;;;;;;;;;;5085343;28;20368;-62
2024/04/08 12:48:01;;;;;;;;;;;;;;;;;;5443479;26;19928;-60
2024/04/08 12:50:26;;;;;;;;;;;;;;;;;;5432567;26;19976;-60
2024/04/08 12:52:51;;;;;;;;;;;;;;;;;;5419953;26;19937;-61
2024/04/08 12:55:17;;;;;;;;;;;;;;;;;;5397058;26;19929;-60
2024/04/08 12:57:42;;;;;;;;;;;;;;;;;;5396982;26;19930;-61
2024/04/08 13:00:09;;;;;;;;;;;;;;;;;;5396855;26;19939;-61
2024/04/08 13:02:34;;;;;;;;;;;;;;;;;;5396591;26;20069;-60
2024/04/08 13:04:59;;;;;;;;;;;;;;;;;;5396523;26;20259;-61
2024/04/08 13:07:24;;;;;;;;;;;;;;;;;;5396536;26;19930;-60
2024/04/08 13:09:51;;;;;;;;;;;;;;;;;;5395737;26;19933;-65
2024/04/08 13:12:16;;;;;;;;;;;;;;;;;;5395463;26;20002;-65
2024/04/08 13:14:41;;;;;;;;;;;;;;;;;;5368296;26;19940;-65
2024/04/08 13:17:06;;;;;;;;;;;;;;;;;;5362448;26;20270;-65
2024/04/08 13:19:31;;;;;;;;;;;;;;;;;;5389486;26;20266;-64
2024/04/08 13:21:56;;;;;;;;;;;;;;;;;;5396163;26;19961;-64
2024/04/08 13:24:22;;;;;;;;;;;;;;;;;;5395941;26;19937;-65
2024/04/08 13:26:48;;;;;;;;;;;;;;;;;;5395385;26;19940;-65
2024/04/08 13:29:13;;;;;;;;;;;;;;;;;;5395152;26;19933;-65
2024/04/08 13:31:38;;;;;;;;;;;;;;;;;;5383295;26;20382;-65
2024/04/08 13:34:03;;;;;;;;;;;;;;;;;;5362114;26;19937;-65
2024/04/08 13:36:28;;;;;;;;;;;;;;;;;;5374857;26;19976;-65
2024/04/08 13:38:53;;;;;;;;;;;;;;;;;;5396212;26;20652;-64
2024/04/08 13:41:19;;;;;;;;;;;;;;;;;;5396090;26;19929;-65
2024/04/08 13:43:44;;;;;;;;;;;;;;;;;;5380903;26;19999;-65
2024/04/08 13:46:09;;;;;;;;;;;;;;;;;;5385446;26;19967;-65
2024/04/08 13:48:34;;;;;;;;;;;;;;;;;;5395794;26;20653;-65
2024/04/08 13:51:01;;;;;;;;;;;;;;;;;;5395621;26;19929;-65
2024/04/08 13:53:26;;;;;;;;;;;;;;;;;;5395162;26;20427;-65
2024/04/08 13:55:51;;;;;;;;;;;;;;;;;;5395709;26;19941;-66
2024/04/08 13:58:16;;;;;;;;;;;;;;;;;;5386245;26;19930;-65
2024/04/08 14:00:41;;;;;;;;;;;;;;;;;;5380808;26;19936;-65
2024/04/08 14:03:07;;;;;;;;;;;;;;;;;;5380560;26;19936;-65
2024/04/08 14:05:33;;;;;;;;;;;;;;;;;;5380675;26;19933;-66
2024/04/08 14:07:58;;;;;;;;;;;;;;;;;;5380683;26;19933;-65
2024/04/08 14:10:23;;;;;;;;;;;;;;;;;;5380511;26;19968;-66
2024/04/08 14:12:48;;;;;;;;;;;;;;;;;;5377838;26;19937;-66
2024/04/08 14:15:14;;;;;;;;;;;;;;;;;;5355727;26;19999;-66
2024/04/08 14:17:39;;;;;;;;;;;;;;;;;;5346502;26;19937;-66
2024/04/08 14:20:04;;;;;;;;;;;;;;;;;;5357484;26;19929;-62
2024/04/08 14:22:29;;;;;;;;;;;;;;;;;;5375118;26;19930;-62
2024/04/08 14:24:54;;;;;;;;;;;;;;;;;;5366692;26;19934;-62
2024/04/08 14:27:20;;;;;;;;;;;;;;;;;;5372373;26;19937;-61
2024/04/08 14:29:45;;;;;;;;;;;;;;;;;;5380083;26;19961;-62
2024/04/08 14:32:10;;;;;;;;;;;;;;;;;;5380652;26;19930;-62
2024/04/08 14:34:35;;;;;;;;;;;;;;;;;;5380452;26;20268;-62
2024/04/08 14:37:00;;;;;;;;;;;;;;;;;;5380154;26;20274;-62
2024/04/08 14:39:25;;;;;;;;;;;;;;;;;;5380374;26;19976;-61
2024/04/08 14:41:50;;;;;;;;;;;;;;;;;;5379421;26;19933;-61
2024/04/08 14:44:16;;;;;;;;;;;;;;;;;;5383642;26;19929;-61
2024/04/08 14:46:41;;;;;;;;;;;;;;;;;;5380942;26;19937;-62
2024/04/08 14:49:06;;;;;;;;;;;;;;;;;;5380190;26;19938;-62
2024/04/08 14:51:31;;;;;;;;;;;;;;;;;;5379232;26;19941;-63
2024/04/08 14:53:56;;;;;;;;;;;;;;;;;;5350782;26;19937;-61
2024/04/08 14:56:21;;;;;;;;;;;;;;;;;;5346197;26;19945;-62
2024/04/08 14:58:46;;;;;;;;;;;;;;;;;;5346287;26;20004;-61
2024/04/08 15:01:12;;;;;;;;;;;;;;;;;;5354709;26;19933;-63
2024/04/08 15:03:37;;;;;;;;;;;;;;;;;;5349091;26;19937;-61
2024/04/08 15:06:02;;;;;;;;;;;;;;;;;;5345868;26;19934;-61
2024/04/08 15:08:28;;;;;;;;;;;;;;;;;;5365616;26;19961;-61
2024/04/08 15:10:54;;;;;;;;;;;;;;;;;;5379758;26;20441;-62
2024/04/08 15:13:20;;;;;;;;;;;;;;;;;;5368478;26;19966;-62
2024/04/08 15:15:45;;;;;;;;;;;;;;;;;;5346997;26;19930;-62
2024/04/08 15:18:10;;;;;;;;;;;;;;;;;;5379021;26;20408;-62
2024/04/08 15:20:35;;;;;;;;;;;;;;;;;;5378971;26;19958;-62
2024/04/08 15:23:00;;;;;;;;;;;;;;;;;;5382109;26;19933;-61
2024/04/08 15:25:25;;;;;;;;;;;;;;;;;;5387902;26;19938;-61
2024/04/08 15:27:50;;;;;;;;;;;;;;;;;;5378162;26;19945;-61
2024/04/08 15:30:16;;;;;;;;;;;;;;;;;;5392331;26;19966;-65
2024/04/08 15:32:41;;;;;;;;;;;;;;;;;;5384644;26;20267;-65
2024/04/08 15:35:06;;;;;;;;;;;;;;;;;;5395385;26;19944;-65
2024/04/08 15:37:31;;;;;;;;;;;;;;;;;;5379893;26;19958;-65
2024/04/08 15:39:56;;;;;;;;;;;;;;;;;;5384187;26;19929;-65
2024/04/08 15:42:22;;;;;;;;;;;;;;;;;;5387770;26;19937;-65
2024/04/08 15:44:48;;;;;;;;;;;;;;;;;;5381484;26;19961;-65
2024/04/08 15:47:13;;;;;;;;;;;;;;;;;;5380499;26;19998;-65
2024/04/08 15:49:38;;;;;;;;;;;;;;;;;;5387646;26;19929;-65
2024/04/08 15:52:03;;;;;;;;;;;;;;;;;;5386905;26;19936;-65
2024/04/08 15:54:28;;;;;;;;;;;;;;;;;;5386111;26;19929;-65
2024/04/08 15:56:53;;;;;;;;;;;;;;;;;;5382067;26;19980;-65
2024/04/08 15:59:19;;;;;;;;;;;;;;;;;;5379196;26;20596;-65
2024/04/08 16:01:44;;;;;;;;;;;;;;;;;;5389040;26;19929;-65
2024/04/08 16:04:09;;;;;;;;;;;;;;;;;;5384056;26;19933;-65
2024/04/08 16:06:34;;;;;;;;;;;;;;;;;;5390766;26;20384;-65
2024/04/08 16:08:59;;;;;;;;;;;;;;;;;;5389609;26;19936;-66
2024/04/08 16:11:24;;;;;;;;;;;;;;;;;;5377982;26;19999;-68
2024/04/08 16:13:49;;;;;;;;;;;;;;;;;;5377247;26;19940;-65
2024/04/08 16:16:14;;;;;;;;;;;;;;;;;;5391198;26;19929;-65
2024/04/08 16:18:40;;;;;;;;;;;;;;;;;;5384413;26;19937;-65
2024/04/08 16:21:05;;;;;;;;;;;;;;;;;;5384468;26;20388;-65
2024/04/08 16:23:30;;;;;;;;;;;;;;;;;;5374534;26;20275;-67
2024/04/08 16:25:55;;;;;;;;;;;;;;;;;;5378170;26;19941;-65
2024/04/08 16:28:20;;;;;;;;;;;;;;;;;;5378625;26;20006;-66
2024/04/08 16:30:46;;;;;;;;;;;;;;;;;;5378481;26;20404;-66
2024/04/08 16:33:11;;;;;;;;;;;;;;;;;;5371140;26;19930;-66